Amsterdam — PBAD — position and weather

sailwx.info

Track history (hours):
 
Tides and Currents Weather Stations Pressure Air Temp Water Temp Dewpoint Dewpoint Depression Visibility Wind Speed Wind Dir Waves Ship Positions

Amsterdam

Operator: Holland America Line

Last reported at 2019-Jul-16 11:39 UTC. Time now 2019-Jul-16 12:23 UTC.
Position N 49°11' W 126°44'.

Type: Ship. MMSI: 244370000.

Date/timePositionNaut miles runAvg speedWind from/ knotsBaromVisibWave heightAir tempDewpointWater temp
2019-Jul-16 11:39N 49°11' W 126°44'317.0
2019-Jul-16 11:29N 49°09' W 126°40'816.9
2019-Jul-16 11:00N 49°04' W 126°31'816.8
2019-Jul-16 10:31N 48°59' W 126°21'917.0
2019-Jul-16 10:01N 48°54' W 126°11'917.5
2019-Jul-16 09:31N 48°49' W 125°60'917.9
2019-Jul-16 09:01N 48°44' W 125°48'5271.4
2019-Jul-16 09:00N 48°42' W 125°42'4 9.3 310 / 151017.410.8 16.014.617.0
2019-Jul-16 08:31N 48°39' W 125°37'917.6
2019-Jul-16 08:00N 48°34' W 125°25'917.6
2019-Jul-16 07:27N 48°32' W 125°12'817.9
2019-Jul-16 07:00N 48°32' W 124°59'917.4
2019-Jul-16 06:30N 48°31' W 124°46'917.8
2019-Jul-16 06:01N 48°28' W 124°34'917.9
2019-Jul-16 05:31N 48°25' W 124°21'917.8
2019-Jul-16 05:01N 48°21' W 124°09'917.7
2019-Jul-16 04:30N 48°18' W 123°56'917.7
2019-Jul-16 04:00N 48°16' W 123°44'917.7
2019-Jul-16 03:30N 48°14' W 123°31'814.7
2019-Jul-16 02:59N 48°09' W 123°22'714.4
2019-Jul-16 02:30N 48°11' W 123°12'916.2
2019-Jul-16 01:59N 48°12' W 122°60'918.8
2019-Jul-16 01:29N 48°11' W 122°46'816.5
2019-Jul-16 00:59N 48°04' W 122°39'816.4
2019-Jul-16 00:30N 47°57' W 122°33'815.8
2019-Jul-16 00:00N 47°50' W 122°27'816.8
2019-Jul-15 23:30N 47°42' W 122°27'510.1
2019-Jul-15 23:00N 47°37' W 122°23'0 0.4
2019-Jul-15 22:30N 47°38' W 122°23'0 0.0
2019-Jul-15 22:00N 47°38' W 122°23'0 0.0
2019-Jul-15 21:30N 47°38' W 122°23'0 0.0
2019-Jul-15 21:00N 47°38' W 122°23'0 0.0
2019-Jul-15 20:30N 47°38' W 122°23'0 0.0
2019-Jul-15 20:00N 47°38' W 122°23'0 0.0
2019-Jul-15 19:30N 47°38' W 122°23'0 0.0
2019-Jul-15 19:00N 47°38' W 122°23'0 0.0
2019-Jul-15 18:30N 47°38' W 122°23'0 0.0
2019-Jul-15 18:00N 47°38' W 122°23'0 0.0
2019-Jul-15 17:30N 47°38' W 122°23'0 0.0
2019-Jul-15 17:00N 47°38' W 122°23'0 0.0
2019-Jul-15 16:30N 47°38' W 122°23'0 0.0
2019-Jul-15 16:00N 47°38' W 122°23'0 0.0
2019-Jul-15 15:30N 47°38' W 122°23'0 0.0
2019-Jul-15 15:00N 47°38' W 122°23'0 0.0
2019-Jul-15 14:30N 47°38' W 122°23'0 0.0
2019-Jul-15 14:00N 47°38' W 122°23'0 0.0
2019-Jul-15 13:30N 47°38' W 122°23'2 3.4
2019-Jul-15 13:00N 47°37' W 122°26'611.8
2019-Jul-15 12:30N 47°43' W 122°28'612.8
2019-Jul-15 12:00N 47°50' W 122°28'3190.0
2019-Jul-15 12:00N 47°48' W 122°24'918.5 160 / 51017.510.8 15.013.216.0
2019-Jul-15 11:30N 47°56' W 122°31'712.7
2019-Jul-15 10:59N 48°01' W 122°38'612.7
2019-Jul-15 10:29N 48°07' W 122°40'612.9
2019-Jul-15 09:59N 48°11' W 122°48'712.9
2019-Jul-15 09:25N 48°11' W 122°59'613.0
2019-Jul-15 09:00N 48°12' W 123°07'6746.5
2019-Jul-15 09:00N 48°06' W 123°06'917.6 280 / 141017.4 13.013.012.0
2019-Jul-15 08:30N 48°11' W 123°17'511.2
2019-Jul-15 08:00N 48°10' W 123°25'610.4
2019-Jul-15 07:29N 48°15' W 123°30'613.0
2019-Jul-15 06:59N 48°21' W 123°25'4 9.1
2019-Jul-15 06:30N 48°25' W 123°24'0 0.7
2019-Jul-15 06:00N 48°25' W 123°23'0 0.0
2019-Jul-15 05:30N 48°25' W 123°23'0 0.0
2019-Jul-15 05:00N 48°25' W 123°23'0 0.0
2019-Jul-15 04:30N 48°25' W 123°23'0 0.0
2019-Jul-15 04:00N 48°25' W 123°23'0 0.0
2019-Jul-15 03:30N 48°25' W 123°23'0 0.0
2019-Jul-15 03:00N 48°25' W 123°23'41476.1
2019-Jul-15 03:00N 48°24' W 123°18'4 7.4 220 / 81017.4 16.813.412.5
2019-Jul-15 02:30N 48°25' W 123°23'4 7.3
2019-Jul-15 02:00N 48°24' W 123°18'476.8 200 / 151017.3 16.212.612.5
2019-Jul-15 01:57N 48°25' W 123°23'0 0.0
2019-Jul-15 01:30N 48°25' W 123°23'0 0.0
2019-Jul-15 01:00N 48°25' W 123°23'0 0.6
2019-Jul-15 00:31N 48°25' W 123°24'4 8.9
2019-Jul-15 00:00N 48°21' W 123°24'816.4
2019-Jul-14 23:30N 48°14' W 123°31'1018.8
2019-Jul-14 23:00N 48°13' W 123°45'918.7
2019-Jul-14 22:30N 48°15' W 123°59'918.8
2019-Jul-14 22:00N 48°19' W 124°12'918.5
2019-Jul-14 21:30N 48°23' W 124°24'917.6
2019-Jul-14 21:00N 48°26' W 124°36'816.5
2019-Jul-14 20:30N 48°29' W 124°49'816.7
2019-Jul-14 20:00N 48°29' W 125°01'815.8
2019-Jul-14 19:30N 48°29' W 125°13'1019.0
2019-Jul-14 19:00N 48°34' W 125°25'1019.4
2019-Jul-14 18:30N 48°39' W 125°38'1019.5
2019-Jul-14 18:01N 48°44' W 125°50'3149.5
2019-Jul-14 18:00N 48°42' W 125°48'1225.3 160 / 51019.510.8 17.015.318.0
2019-Jul-14 17:31N 48°49' W 126°03'1019.3
2019-Jul-14 17:00N 48°55' W 126°14'1019.2
2019-Jul-14 16:30N 49°01' W 126°26'1019.4
2019-Jul-14 16:00N 49°08' W 126°37'1817.9
2019-Jul-14 15:00N 49°18' W 127°00'9419.7 150 / 71018.410.8 16.015.118.0
2019-Jul-14 10:14N 50°19' W 128°50'419.2
2019-Jul-14 10:00N 50°22' W 128°55'1019.0
2019-Jul-14 09:30N 50°28' W 129°06'1219.3
2019-Jul-14 08:54N 50°36' W 129°20'819.6
2019-Jul-14 08:30N 50°42' W 129°29'1019.8
2019-Jul-14 08:00N 50°48' W 129°40'180.7
2019-Jul-14 08:00N 50°48' W 129°42'1919.3 170 / 121016.7 16.015.717.0
2019-Jul-14 07:00N 51°00' W 130°06'13118.7 150 / 31016.8 15.515.216.0
2019-Jul-14 00:00N 52°36' W 132°30'11819.6 150 / 151015.910.8 16.015.117.5
2019-Jul-13 18:00N 54°24' W 133°48'5718.9 180 / 131014.0 5.4 13.312.815.0
2019-Jul-13 15:00N 55°18' W 134°18'6020.0 010 / 41016.1 0.0 12.512.516.0
2019-Jul-13 12:00N 56°18' W 134°24'4916.3 150 / 91015.4 0.0 14.014.013.0
2019-Jul-13 09:00N 57°06' W 134°42'1818.0 250 / 21015.9 14.213.513.0
2019-Jul-13 08:00N 57°24' W 134°42'79 4.0 270 / 81015.9 15.014.715.5
2019-Jul-12 12:00N 58°42' W 135°06'2010.2 170 / 121016.210.8 15.513.717.0
2019-Jul-12 10:00N 58°24' W 134°48'1413.6 150 / 111016.3 15.014.716.0
2019-Jul-12 09:00N 58°12' W 134°36'9 2.2 270 / 31016.6 14.813.914.0
2019-Jul-12 05:00N 58°18' W 134°24'58 4.2 190 / 31016.0 17.215.010.0
2019-Jul-11 15:00N 57°24' W 133°42'5518.2 220 / 131015.8 5.4 14.012.214.5
2019-Jul-11 12:00N 56°36' W 134°30'2424.2 190 / 151015.310.8 13.512.612.0
2019-Jul-11 11:00N 56°12' W 134°24'1818.0 170 / 111015.0 12.812.812.0
2019-Jul-11 10:00N 55°54' W 134°24'4321.3 270 / 91015.2 13.013.012.0
2019-Jul-11 08:00N 55°12' W 134°12'8415.6 030 / 71014.6 14.014.016.0
2019-Jul-11 02:38N 54°39' W 131°58'1819.4
2019-Jul-11 01:43N 54°56' W 131°47'23 4.9
2019-Jul-10 21:00N 55°18' W 131°36'3 0.7 120 / 111010.8 20.413.116.0
2019-Jul-10 16:00N 55°18' W 131°42'1910.0 110 / 21010.0 2.2 14.014.015.0
2019-Jul-10 14:07N 55°10' W 131°12'1315.2
2019-Jul-10 13:16N 54°58' W 131°06'416.2
2019-Jul-10 13:00N 54°54' W 131°06'816.0
2019-Jul-10 12:30N 54°46' W 131°10'816.4
2019-Jul-10 12:00N 54°38' W 131°17'715.1
2019-Jul-10 11:31N 54°31' W 131°17'816.6
2019-Jul-10 11:01N 54°24' W 131°10'816.6
2019-Jul-10 10:31N 54°17' W 131°02'816.8
2019-Jul-10 10:01N 54°09' W 131°01'816.7
2019-Jul-10 09:30N 54°00' W 130°60'817.0
2019-Jul-10 09:00N 53°52' W 130°58'816.6
2019-Jul-10 08:31N 53°44' W 130°52'816.5
2019-Jul-10 08:00N 53°36' W 130°49'7525.6
2019-Jul-10 08:00N 53°30' W 130°42'3 4.9 350 / 111012.210.8 14.013.315.0
2019-Jul-10 07:29N 53°28' W 130°44'816.6
2019-Jul-10 06:59N 53°20' W 130°40'6616.5
2019-Jul-10 03:01N 52°19' W 130°01'017.6
2019-Jul-10 03:00N 52°19' W 130°01'1113.2
2019-Jul-10 03:00N 52°18' W 130°00'715.0 030 / 121014.010.8 15.013.215.0
2019-Jul-10 02:30N 52°11' W 129°59'816.6
2019-Jul-10 02:00N 52°03' W 129°54'816.4
2019-Jul-10 01:30N 51°55' W 129°49'816.4
2019-Jul-10 01:00N 51°48' W 129°45'816.5
2019-Jul-10 00:30N 51°40' W 129°41'816.8
2019-Jul-10 00:00N 51°32' W 129°36'816.5
2019-Jul-09 23:30N 51°24' W 129°32'816.5
2019-Jul-09 23:01N 51°16' W 129°27'816.8
2019-Jul-09 22:30N 51°08' W 129°23'814.7
2019-Jul-09 21:59N 51°01' W 129°18'1516.6
2019-Jul-09 21:06N 50°48' W 129°10'654.1
2019-Jul-09 21:00N 50°42' W 129°06'1212.4 070 / 191014.010.8 16.012.417.0
2019-Jul-09 20:04N 50°33' W 128°54'117.1
2019-Jul-09 20:00N 50°33' W 128°53'3919.6
2019-Jul-09 18:00N 50°00' W 128°18'4615.3 120 / 171014.410.8 17.013.516.0
2019-Jul-09 15:00N 49°30' W 127°24'3215.5 150 / 61014.210.8 15.013.216.0
2019-Jul-09 12:54N 49°11' W 126°44'716.8
2019-Jul-09 12:30N 49°07' W 126°36'817.1
2019-Jul-09 12:00N 49°01' W 126°26'2108.8
2019-Jul-09 12:00N 49°00' W 126°24'713.7 110 / 51014.510.8 14.512.715.0
2019-Jul-09 11:30N 48°56' W 126°16'816.6
2019-Jul-09 11:00N 48°51' W 126°06'816.6
2019-Jul-09 10:30N 48°46' W 125°56'816.4
2019-Jul-09 10:00N 48°42' W 125°45'916.9
2019-Jul-09 09:30N 48°38' W 125°34'816.5
2019-Jul-09 09:00N 48°33' W 125°23'5311.5
2019-Jul-09 09:00N 48°30' W 125°18'6 9.9 350 / 31015.6 14.013.115.0
2019-Jul-09 08:26N 48°31' W 125°10'716.9
2019-Jul-09 08:00N 48°31' W 124°59'816.7
2019-Jul-09 07:30N 48°31' W 124°46'816.9
2019-Jul-09 07:01N 48°28' W 124°34'5290.7
2019-Jul-09 07:00N 48°24' W 124°30'510.6 280 / 161015.9 13.012.613.0
2019-Jul-09 06:30N 48°25' W 124°22'816.7
2019-Jul-09 06:00N 48°22' W 124°11'916.6
2019-Jul-09 05:30N 48°18' W 123°59'1016.5
2019-Jul-09 04:52N 48°17' W 123°43'615.2
2019-Jul-09 04:30N 48°16' W 123°35'715.1
2019-Jul-09 04:00N 48°12' W 123°26'611.5
2019-Jul-09 03:30N 48°09' W 123°18'612.3
2019-Jul-09 03:00N 48°12' W 123°10'815.3
2019-Jul-09 02:29N 48°12' W 122°58'715.2
2019-Jul-09 02:00N 48°11' W 122°47'813.7
2019-Jul-09 01:27N 48°06' W 122°39'715.4
2019-Jul-09 01:01N 47°59' W 122°35'815.3
2019-Jul-09 00:31N 47°53' W 122°28'816.5
2019-Jul-09 00:01N 47°45' W 122°26'815.8
2019-Jul-08 23:30N 47°37' W 122°25'2 3.2
2019-Jul-08 23:00N 47°38' W 122°23'0 0.0
2019-Jul-08 22:30N 47°38' W 122°23'0 0.0
2019-Jul-08 22:00N 47°38' W 122°23'0 0.0
2019-Jul-08 21:30N 47°38' W 122°23'0 0.0
2019-Jul-08 21:00N 47°38' W 122°23'0 0.0
2019-Jul-08 20:30N 47°38' W 122°23'0 0.0
2019-Jul-08 20:00N 47°38' W 122°23'4802.6
2019-Jul-08 20:00N 47°36' W 122°18'4 7.6 210 / 41016.1 15.814.214.0
2019-Jul-08 19:30N 47°38' W 122°23'0 0.0
2019-Jul-08 19:00N 47°38' W 122°23'0 0.0
2019-Jul-08 18:30N 47°38' W 122°23'0 0.0
2019-Jul-08 18:00N 47°38' W 122°23'0 0.0
2019-Jul-08 17:30N 47°38' W 122°23'0 0.0
2019-Jul-08 17:00N 47°38' W 122°23'0 0.0
2019-Jul-08 16:30N 47°38' W 122°23'0 0.0
2019-Jul-08 16:00N 47°38' W 122°23'0 0.0
2019-Jul-08 15:30N 47°38' W 122°23'0 0.0
2019-Jul-08 15:00N 47°38' W 122°23'0 0.0
2019-Jul-08 14:30N 47°38' W 122°23'0 0.0
2019-Jul-08 14:00N 47°38' W 122°23'0 0.0
2019-Jul-08 13:30N 47°38' W 122°23'2 4.0
2019-Jul-08 13:00N 47°37' W 122°26'611.8
2019-Jul-08 12:30N 47°43' W 122°27'713.1
2019-Jul-08 12:00N 47°50' W 122°28'612.8
2019-Jul-08 11:30N 47°56' W 122°32'812.8
2019-Jul-08 10:53N 48°02' W 122°39'612.6
2019-Jul-08 10:25N 48°08' W 122°42'612.6
2019-Jul-08 09:58N 48°11' W 122°49'612.2
2019-Jul-08 09:30N 48°11' W 122°57'713.3
2019-Jul-08 09:00N 48°12' W 123°07'6464.2
2019-Jul-08 09:00N 48°06' W 123°06'916.8 260 / 71015.3 5.4 12.812.212.0
2019-Jul-08 08:27N 48°10' W 123°18'511.1
2019-Jul-08 08:00N 48°10' W 123°25'510.2
2019-Jul-08 07:30N 48°14' W 123°31'713.2
2019-Jul-08 07:00N 48°20' W 123°26'510.7
2019-Jul-08 06:30N 48°25' W 123°24'0 0.8
2019-Jul-08 06:00N 48°25' W 123°23'0 0.0
2019-Jul-08 05:30N 48°25' W 123°23'0 0.0
2019-Jul-08 05:00N 48°25' W 123°23'0 0.0
2019-Jul-08 04:30N 48°25' W 123°23'0 0.0
2019-Jul-08 04:00N 48°25' W 123°23'0 0.0
2019-Jul-08 03:30N 48°25' W 123°23'0 0.0
2019-Jul-08 03:00N 48°25' W 123°23'0 0.0
2019-Jul-08 02:30N 48°25' W 123°23'0 0.0
2019-Jul-08 02:00N 48°25' W 123°23'41021.9
2019-Jul-08 02:00N 48°24' W 123°18'4 7.4 230 / 131016.0 13.812.912.0
2019-Jul-08 01:30N 48°25' W 123°23'0 0.0
2019-Jul-08 01:00N 48°25' W 123°23'1 1.3
2019-Jul-08 00:30N 48°25' W 123°24'4 8.6
2019-Jul-08 00:00N 48°20' W 123°24'916.9
2019-Jul-07 23:30N 48°14' W 123°31'1018.9
2019-Jul-07 23:00N 48°14' W 123°46'918.6
2019-Jul-07 22:30N 48°15' W 123°59'1018.9
2019-Jul-07 22:00N 48°19' W 124°12'919.0
2019-Jul-07 21:30N 48°23' W 124°25'1019.2
2019-Jul-07 21:00N 48°27' W 124°38'918.5
2019-Jul-07 20:30N 48°29' W 124°52'918.6
2019-Jul-07 20:00N 48°29' W 125°06'918.3
2019-Jul-07 19:31N 48°32' W 125°19'918.9
2019-Jul-07 19:00N 48°37' W 125°31'918.8
2019-Jul-07 18:30N 48°41' W 125°43'918.8
2019-Jul-07 18:00N 48°46' W 125°56'1019.0
2019-Jul-07 17:30N 48°52' W 126°07'1019.6
2019-Jul-07 17:00N 48°58' W 126°19'2136.0
2019-Jul-07 17:00N 49°00' W 126°18'919.0 240 / 51016.8 5.4 15.012.316.0
2019-Jul-07 16:29N 49°04' W 126°31'1019.4
2019-Jul-07 15:59N 49°10' W 126°43'10119.9
2019-Jul-07 10:54N 50°15' W 128°43'820.1
2019-Jul-07 10:29N 50°21' W 128°53'918.2
2019-Jul-07 10:00N 50°24' W 129°06'4131.4 270 / 121017.3 5.4 13.013.016.0
2019-Jul-07 09:58N 50°28' W 129°05'920.1
2019-Jul-07 09:31N 50°34' W 129°16'1019.9
2019-Jul-07 09:01N 50°41' W 129°27'2137.9
2019-Jul-07 09:00N 50°42' W 129°30'816.1 270 / 131017.4 5.4 13.213.215.0
2019-Jul-07 08:30N 50°47' W 129°39'1020.0
2019-Jul-07 08:00N 50°54' W 129°51'2104.7
2019-Jul-07 08:00N 50°54' W 129°48'1123.4 270 / 121017.5 5.4 13.312.815.0
2019-Jul-07 07:30N 51°01' W 130°02'1019.8
2019-Jul-07 07:00N 51°08' W 130°14'2133.3
2019-Jul-07 07:00N 51°06' W 130°12'1123.6 290 / 151017.4 5.4 13.512.616.0
2019-Jul-07 06:30N 51°14' W 130°25'1019.9
2019-Jul-07 06:00N 51°21' W 130°37'1121.4
2019-Jul-07 05:30N 51°28' W 130°49'1020.4
2019-Jul-07 05:00N 51°35' W 131°01'1020.1
2019-Jul-07 04:30N 51°42' W 131°13'1020.2
2019-Jul-07 04:00N 51°49' W 131°25'1520.1
2019-Jul-07 03:15N 52°00' W 131°41'5140.7
2019-Jul-07 02:00N 52°48' W 132°12'1712.5 310 / 161017.3 5.4 13.513.514.0
2019-Jul-07 00:39N 52°41' W 132°37'420.7
2019-Jul-07 00:27N 52°45' W 132°41'511.8
2019-Jul-07 00:00N 52°48' W 132°48'4523.2 310 / 151018.3 5.4 14.013.114.0
2019-Jul-06 22:03N 53°28' W 133°24'3120.6
2019-Jul-06 20:33N 53°57' W 133°39'121.2
2019-Jul-06 20:30N 53°58' W 133°39'1020.7
2019-Jul-06 20:00N 54°08' W 133°44'342563.5
2019-Jul-06 20:00N 54°06' W 134°42'5226.2 300 / 101019.5 5.4 13.413.013.0
2019-Jul-06 18:00N 54°54' W 134°06'11419.1 300 / 141019.5 0.1 13.513.113.0
2019-Jul-06 12:00N 56°48' W 134°24'   190 / 191017.610.8 13.512.614.0
Track history (hours):
 
Tides and Currents Weather Stations Pressure Air Temp Water Temp Dewpoint Dewpoint Depression Visibility Wind Speed Wind Dir Waves Ship Positions

Amsterdam

Operator: Holland America Line

Last reported at 2019-Jul-16 11:39 UTC. Time now 2019-Jul-16 12:23 UTC.
Position N 49°11' W 126°44'.

Type: Ship. MMSI: 244370000.

Date/timePositionNaut miles runAvg speedWind from/ knotsBaromVisibWave heightAir tempDewpointWater temp
2019-Jul-16 11:39N 49°11' W 126°44'317.0
2019-Jul-16 11:29N 49°09' W 126°40'816.9
2019-Jul-16 11:00N 49°04' W 126°31'816.8
2019-Jul-16 10:31N 48°59' W 126°21'917.0
2019-Jul-16 10:01N 48°54' W 126°11'917.5
2019-Jul-16 09:31N 48°49' W 125°60'917.9
2019-Jul-16 09:01N 48°44' W 125°48'5271.4
2019-Jul-16 09:00N 48°42' W 125°42'4 9.3 310 / 151017.410.8 16.014.617.0
2019-Jul-16 08:31N 48°39' W 125°37'917.6
2019-Jul-16 08:00N 48°34' W 125°25'917.6
2019-Jul-16 07:27N 48°32' W 125°12'817.9
2019-Jul-16 07:00N 48°32' W 124°59'917.4
2019-Jul-16 06:30N 48°31' W 124°46'917.8
2019-Jul-16 06:01N 48°28' W 124°34'917.9
2019-Jul-16 05:31N 48°25' W 124°21'917.8
2019-Jul-16 05:01N 48°21' W 124°09'917.7
2019-Jul-16 04:30N 48°18' W 123°56'917.7
2019-Jul-16 04:00N 48°16' W 123°44'917.7
2019-Jul-16 03:30N 48°14' W 123°31'814.7
2019-Jul-16 02:59N 48°09' W 123°22'714.4
2019-Jul-16 02:30N 48°11' W 123°12'916.2
2019-Jul-16 01:59N 48°12' W 122°60'918.8
2019-Jul-16 01:29N 48°11' W 122°46'816.5
2019-Jul-16 00:59N 48°04' W 122°39'816.4
2019-Jul-16 00:30N 47°57' W 122°33'815.8
2019-Jul-16 00:00N 47°50' W 122°27'816.8
2019-Jul-15 23:30N 47°42' W 122°27'510.1
2019-Jul-15 23:00N 47°37' W 122°23'0 0.4
2019-Jul-15 22:30N 47°38' W 122°23'0 0.0
2019-Jul-15 22:00N 47°38' W 122°23'0 0.0
2019-Jul-15 21:30N 47°38' W 122°23'0 0.0
2019-Jul-15 21:00N 47°38' W 122°23'0 0.0
2019-Jul-15 20:30N 47°38' W 122°23'0 0.0
2019-Jul-15 20:00N 47°38' W 122°23'0 0.0
2019-Jul-15 19:30N 47°38' W 122°23'0 0.0
2019-Jul-15 19:00N 47°38' W 122°23'0 0.0
2019-Jul-15 18:30N 47°38' W 122°23'0 0.0
2019-Jul-15 18:00N 47°38' W 122°23'0 0.0
2019-Jul-15 17:30N 47°38' W 122°23'0 0.0
2019-Jul-15 17:00N 47°38' W 122°23'0 0.0
2019-Jul-15 16:30N 47°38' W 122°23'0 0.0
2019-Jul-15 16:00N 47°38' W 122°23'0 0.0
2019-Jul-15 15:30N 47°38' W 122°23'0 0.0
2019-Jul-15 15:00N 47°38' W 122°23'0 0.0
2019-Jul-15 14:30N 47°38' W 122°23'0 0.0
2019-Jul-15 14:00N 47°38' W 122°23'0 0.0
2019-Jul-15 13:30N 47°38' W 122°23'2 3.4
2019-Jul-15 13:00N 47°37' W 122°26'611.8
2019-Jul-15 12:30N 47°43' W 122°28'612.8
2019-Jul-15 12:00N 47°50' W 122°28'3190.0
2019-Jul-15 12:00N 47°48' W 122°24'918.5 160 / 51017.510.8 15.013.216.0
2019-Jul-15 11:30N 47°56' W 122°31'712.7
2019-Jul-15 10:59N 48°01' W 122°38'612.7
2019-Jul-15 10:29N 48°07' W 122°40'612.9
2019-Jul-15 09:59N 48°11' W 122°48'712.9
2019-Jul-15 09:25N 48°11' W 122°59'613.0
2019-Jul-15 09:00N 48°12' W 123°07'6746.5
2019-Jul-15 09:00N 48°06' W 123°06'917.6 280 / 141017.4 13.013.012.0
2019-Jul-15 08:30N 48°11' W 123°17'511.2
2019-Jul-15 08:00N 48°10' W 123°25'610.4
2019-Jul-15 07:29N 48°15' W 123°30'613.0
2019-Jul-15 06:59N 48°21' W 123°25'4 9.1
2019-Jul-15 06:30N 48°25' W 123°24'0 0.7
2019-Jul-15 06:00N 48°25' W 123°23'0 0.0
2019-Jul-15 05:30N 48°25' W 123°23'0 0.0
2019-Jul-15 05:00N 48°25' W 123°23'0 0.0
2019-Jul-15 04:30N 48°25' W 123°23'0 0.0
2019-Jul-15 04:00N 48°25' W 123°23'0 0.0
2019-Jul-15 03:30N 48°25' W 123°23'0 0.0
2019-Jul-15 03:00N 48°25' W 123°23'41476.1
2019-Jul-15 03:00N 48°24' W 123°18'4 7.4 220 / 81017.4 16.813.412.5
2019-Jul-15 02:30N 48°25' W 123°23'4 7.3
2019-Jul-15 02:00N 48°24' W 123°18'476.8 200 / 151017.3 16.212.612.5
2019-Jul-15 01:57N 48°25' W 123°23'0 0.0
2019-Jul-15 01:30N 48°25' W 123°23'0 0.0
2019-Jul-15 01:00N 48°25' W 123°23'0 0.6
2019-Jul-15 00:31N 48°25' W 123°24'4 8.9
2019-Jul-15 00:00N 48°21' W 123°24'816.4
2019-Jul-14 23:30N 48°14' W 123°31'1018.8
2019-Jul-14 23:00N 48°13' W 123°45'918.7
2019-Jul-14 22:30N 48°15' W 123°59'918.8
2019-Jul-14 22:00N 48°19' W 124°12'918.5
2019-Jul-14 21:30N 48°23' W 124°24'917.6
2019-Jul-14 21:00N 48°26' W 124°36'816.5
2019-Jul-14 20:30N 48°29' W 124°49'816.7
2019-Jul-14 20:00N 48°29' W 125°01'815.8
2019-Jul-14 19:30N 48°29' W 125°13'1019.0
2019-Jul-14 19:00N 48°34' W 125°25'1019.4
2019-Jul-14 18:30N 48°39' W 125°38'1019.5
2019-Jul-14 18:01N 48°44' W 125°50'3149.5
2019-Jul-14 18:00N 48°42' W 125°48'1225.3 160 / 51019.510.8 17.015.318.0
2019-Jul-14 17:31N 48°49' W 126°03'1019.3
2019-Jul-14 17:00N 48°55' W 126°14'1019.2
2019-Jul-14 16:30N 49°01' W 126°26'1019.4
2019-Jul-14 16:00N 49°08' W 126°37'1817.9
2019-Jul-14 15:00N 49°18' W 127°00'9419.7 150 / 71018.410.8 16.015.118.0
2019-Jul-14 10:14N 50°19' W 128°50'419.2
2019-Jul-14 10:00N 50°22' W 128°55'1019.0
2019-Jul-14 09:30N 50°28' W 129°06'1219.3
2019-Jul-14 08:54N 50°36' W 129°20'819.6
2019-Jul-14 08:30N 50°42' W 129°29'1019.8
2019-Jul-14 08:00N 50°48' W 129°40'180.7
2019-Jul-14 08:00N 50°48' W 129°42'1919.3 170 / 121016.7 16.015.717.0
2019-Jul-14 07:00N 51°00' W 130°06'13118.7 150 / 31016.8 15.515.216.0
2019-Jul-14 00:00N 52°36' W 132°30'11819.6 150 / 151015.910.8 16.015.117.5
2019-Jul-13 18:00N 54°24' W 133°48'5718.9 180 / 131014.0 5.4 13.312.815.0
2019-Jul-13 15:00N 55°18' W 134°18'6020.0 010 / 41016.1 0.0 12.512.516.0
2019-Jul-13 12:00N 56°18' W 134°24'4916.3 150 / 91015.4 0.0 14.014.013.0
2019-Jul-13 09:00N 57°06' W 134°42'1818.0 250 / 21015.9 14.213.513.0
2019-Jul-13 08:00N 57°24' W 134°42'79 4.0 270 / 81015.9 15.014.715.5
2019-Jul-12 12:00N 58°42' W 135°06'2010.2 170 / 121016.210.8 15.513.717.0
2019-Jul-12 10:00N 58°24' W 134°48'1413.6 150 / 111016.3 15.014.716.0
2019-Jul-12 09:00N 58°12' W 134°36'9 2.2 270 / 31016.6 14.813.914.0
2019-Jul-12 05:00N 58°18' W 134°24'58 4.2 190 / 31016.0 17.215.010.0
2019-Jul-11 15:00N 57°24' W 133°42'5518.2 220 / 131015.8 5.4 14.012.214.5
2019-Jul-11 12:00N 56°36' W 134°30'2424.2 190 / 151015.310.8 13.512.612.0
2019-Jul-11 11:00N 56°12' W 134°24'1818.0 170 / 111015.0 12.812.812.0
2019-Jul-11 10:00N 55°54' W 134°24'4321.3 270 / 91015.2 13.013.012.0
2019-Jul-11 08:00N 55°12' W 134°12'8415.6 030 / 71014.6 14.014.016.0
2019-Jul-11 02:38N 54°39' W 131°58'1819.4
2019-Jul-11 01:43N 54°56' W 131°47'23 4.9
2019-Jul-10 21:00N 55°18' W 131°36'3 0.7 120 / 111010.8 20.413.116.0
2019-Jul-10 16:00N 55°18' W 131°42'1910.0 110 / 21010.0 2.2 14.014.015.0
2019-Jul-10 14:07N 55°10' W 131°12'1315.2
2019-Jul-10 13:16N 54°58' W 131°06'416.2
2019-Jul-10 13:00N 54°54' W 131°06'816.0
2019-Jul-10 12:30N 54°46' W 131°10'816.4
2019-Jul-10 12:00N 54°38' W 131°17'715.1
2019-Jul-10 11:31N 54°31' W 131°17'816.6
2019-Jul-10 11:01N 54°24' W 131°10'816.6
2019-Jul-10 10:31N 54°17' W 131°02'816.8
2019-Jul-10 10:01N 54°09' W 131°01'816.7
2019-Jul-10 09:30N 54°00' W 130°60'817.0
2019-Jul-10 09:00N 53°52' W 130°58'816.6
2019-Jul-10 08:31N 53°44' W 130°52'816.5
2019-Jul-10 08:00N 53°36' W 130°49'7525.6
2019-Jul-10 08:00N 53°30' W 130°42'3 4.9 350 / 111012.210.8 14.013.315.0
2019-Jul-10 07:29N 53°28' W 130°44'816.6
2019-Jul-10 06:59N 53°20' W 130°40'6616.5
2019-Jul-10 03:01N 52°19' W 130°01'017.6
2019-Jul-10 03:00N 52°19' W 130°01'1113.2
2019-Jul-10 03:00N 52°18' W 130°00'715.0 030 / 121014.010.8 15.013.215.0
2019-Jul-10 02:30N 52°11' W 129°59'816.6
2019-Jul-10 02:00N 52°03' W 129°54'816.4
2019-Jul-10 01:30N 51°55' W 129°49'816.4
2019-Jul-10 01:00N 51°48' W 129°45'816.5
2019-Jul-10 00:30N 51°40' W 129°41'816.8
2019-Jul-10 00:00N 51°32' W 129°36'816.5
2019-Jul-09 23:30N 51°24' W 129°32'816.5
2019-Jul-09 23:01N 51°16' W 129°27'816.8
2019-Jul-09 22:30N 51°08' W 129°23'814.7
2019-Jul-09 21:59N 51°01' W 129°18'1516.6
2019-Jul-09 21:06N 50°48' W 129°10'654.1
2019-Jul-09 21:00N 50°42' W 129°06'1212.4 070 / 191014.010.8 16.012.417.0
2019-Jul-09 20:04N 50°33' W 128°54'117.1
2019-Jul-09 20:00N 50°33' W 128°53'3919.6
2019-Jul-09 18:00N 50°00' W 128°18'4615.3 120 / 171014.410.8 17.013.516.0
2019-Jul-09 15:00N 49°30' W 127°24'3215.5 150 / 61014.210.8 15.013.216.0
2019-Jul-09 12:54N 49°11' W 126°44'716.8
2019-Jul-09 12:30N 49°07' W 126°36'817.1
2019-Jul-09 12:00N 49°01' W 126°26'2108.8
2019-Jul-09 12:00N 49°00' W 126°24'713.7 110 / 51014.510.8 14.512.715.0
2019-Jul-09 11:30N 48°56' W 126°16'816.6
2019-Jul-09 11:00N 48°51' W 126°06'816.6
2019-Jul-09 10:30N 48°46' W 125°56'816.4
2019-Jul-09 10:00N 48°42' W 125°45'916.9
2019-Jul-09 09:30N 48°38' W 125°34'816.5
2019-Jul-09 09:00N 48°33' W 125°23'5311.5
2019-Jul-09 09:00N 48°30' W 125°18'6 9.9 350 / 31015.6 14.013.115.0
2019-Jul-09 08:26N 48°31' W 125°10'716.9
2019-Jul-09 08:00N 48°31' W 124°59'816.7
2019-Jul-09 07:30N 48°31' W 124°46'816.9
2019-Jul-09 07:01N 48°28' W 124°34'5290.7
2019-Jul-09 07:00N 48°24' W 124°30'510.6 280 / 161015.9 13.012.613.0
2019-Jul-09 06:30N 48°25' W 124°22'816.7
2019-Jul-09 06:00N 48°22' W 124°11'916.6
2019-Jul-09 05:30N 48°18' W 123°59'1016.5
2019-Jul-09 04:52N 48°17' W 123°43'615.2
2019-Jul-09 04:30N 48°16' W 123°35'715.1
2019-Jul-09 04:00N 48°12' W 123°26'611.5
2019-Jul-09 03:30N 48°09' W 123°18'612.3
2019-Jul-09 03:00N 48°12' W 123°10'815.3
2019-Jul-09 02:29N 48°12' W 122°58'715.2
2019-Jul-09 02:00N 48°11' W 122°47'813.7
2019-Jul-09 01:27N 48°06' W 122°39'715.4
2019-Jul-09 01:01N 47°59' W 122°35'815.3
2019-Jul-09 00:31N 47°53' W 122°28'816.5
2019-Jul-09 00:01N 47°45' W 122°26'815.8
2019-Jul-08 23:30N 47°37' W 122°25'2 3.2
2019-Jul-08 23:00N 47°38' W 122°23'0 0.0
2019-Jul-08 22:30N 47°38' W 122°23'0 0.0
2019-Jul-08 22:00N 47°38' W 122°23'0 0.0
2019-Jul-08 21:30N 47°38' W 122°23'0 0.0
2019-Jul-08 21:00N 47°38' W 122°23'0 0.0
2019-Jul-08 20:30N 47°38' W 122°23'0 0.0
2019-Jul-08 20:00N 47°38' W 122°23'4802.6
2019-Jul-08 20:00N 47°36' W 122°18'4 7.6 210 / 41016.1 15.814.214.0
2019-Jul-08 19:30N 47°38' W 122°23'0 0.0
2019-Jul-08 19:00N 47°38' W 122°23'0 0.0
2019-Jul-08 18:30N 47°38' W 122°23'0 0.0
2019-Jul-08 18:00N 47°38' W 122°23'0 0.0
2019-Jul-08 17:30N 47°38' W 122°23'0 0.0
2019-Jul-08 17:00N 47°38' W 122°23'0 0.0
2019-Jul-08 16:30N 47°38' W 122°23'0 0.0
2019-Jul-08 16:00N 47°38' W 122°23'0 0.0
2019-Jul-08 15:30N 47°38' W 122°23'0 0.0
2019-Jul-08 15:00N 47°38' W 122°23'0 0.0
2019-Jul-08 14:30N 47°38' W 122°23'0 0.0
2019-Jul-08 14:00N 47°38' W 122°23'0 0.0
2019-Jul-08 13:30N 47°38' W 122°23'2 4.0
2019-Jul-08 13:00N 47°37' W 122°26'611.8
2019-Jul-08 12:30N 47°43' W 122°27'713.1
2019-Jul-08 12:00N 47°50' W 122°28'612.8
2019-Jul-08 11:30N 47°56' W 122°32'812.8
2019-Jul-08 10:53N 48°02' W 122°39'612.6
2019-Jul-08 10:25N 48°08' W 122°42'612.6
2019-Jul-08 09:58N 48°11' W 122°49'612.2
2019-Jul-08 09:30N 48°11' W 122°57'713.3
2019-Jul-08 09:00N 48°12' W 123°07'6464.2
2019-Jul-08 09:00N 48°06' W 123°06'916.8 260 / 71015.3 5.4 12.812.212.0
2019-Jul-08 08:27N 48°10' W 123°18'511.1
2019-Jul-08 08:00N 48°10' W 123°25'510.2
2019-Jul-08 07:30N 48°14' W 123°31'713.2
2019-Jul-08 07:00N 48°20' W 123°26'510.7
2019-Jul-08 06:30N 48°25' W 123°24'0 0.8
2019-Jul-08 06:00N 48°25' W 123°23'0 0.0
2019-Jul-08 05:30N 48°25' W 123°23'0 0.0
2019-Jul-08 05:00N 48°25' W 123°23'0 0.0
2019-Jul-08 04:30N 48°25' W 123°23'0 0.0
2019-Jul-08 04:00N 48°25' W 123°23'0 0.0
2019-Jul-08 03:30N 48°25' W 123°23'0 0.0
2019-Jul-08 03:00N 48°25' W 123°23'0 0.0
2019-Jul-08 02:30N 48°25' W 123°23'0 0.0
2019-Jul-08 02:00N 48°25' W 123°23'41021.9
2019-Jul-08 02:00N 48°24' W 123°18'4 7.4 230 / 131016.0 13.812.912.0
2019-Jul-08 01:30N 48°25' W 123°23'0 0.0
2019-Jul-08 01:00N 48°25' W 123°23'1 1.3
2019-Jul-08 00:30N 48°25' W 123°24'4 8.6
2019-Jul-08 00:00N 48°20' W 123°24'916.9
2019-Jul-07 23:30N 48°14' W 123°31'1018.9
2019-Jul-07 23:00N 48°14' W 123°46'918.6
2019-Jul-07 22:30N 48°15' W 123°59'1018.9
2019-Jul-07 22:00N 48°19' W 124°12'919.0
2019-Jul-07 21:30N 48°23' W 124°25'1019.2
2019-Jul-07 21:00N 48°27' W 124°38'918.5
2019-Jul-07 20:30N 48°29' W 124°52'918.6
2019-Jul-07 20:00N 48°29' W 125°06'918.3
2019-Jul-07 19:31N 48°32' W 125°19'918.9
2019-Jul-07 19:00N 48°37' W 125°31'918.8
2019-Jul-07 18:30N 48°41' W 125°43'918.8
2019-Jul-07 18:00N 48°46' W 125°56'1019.0
2019-Jul-07 17:30N 48°52' W 126°07'1019.6
2019-Jul-07 17:00N 48°58' W 126°19'2136.0
2019-Jul-07 17:00N 49°00' W 126°18'919.0 240 / 51016.8 5.4 15.012.316.0
2019-Jul-07 16:29N 49°04' W 126°31'1019.4
2019-Jul-07 15:59N 49°10' W 126°43'10119.9
2019-Jul-07 10:54N 50°15' W 128°43'820.1
2019-Jul-07 10:29N 50°21' W 128°53'918.2
2019-Jul-07 10:00N 50°24' W 129°06'4131.4 270 / 121017.3 5.4 13.013.016.0
2019-Jul-07 09:58N 50°28' W 129°05'920.1
2019-Jul-07 09:31N 50°34' W 129°16'1019.9
2019-Jul-07 09:01N 50°41' W 129°27'2137.9
2019-Jul-07 09:00N 50°42' W 129°30'816.1 270 / 131017.4 5.4 13.213.215.0
2019-Jul-07 08:30N 50°47' W 129°39'1020.0
2019-Jul-07 08:00N 50°54' W 129°51'2104.7
2019-Jul-07 08:00N 50°54' W 129°48'1123.4 270 / 121017.5 5.4 13.312.815.0
2019-Jul-07 07:30N 51°01' W 130°02'1019.8
2019-Jul-07 07:00N 51°08' W 130°14'2133.3
2019-Jul-07 07:00N 51°06' W 130°12'1123.6 290 / 151017.4 5.4 13.512.616.0
2019-Jul-07 06:30N 51°14' W 130°25'1019.9
2019-Jul-07 06:00N 51°21' W 130°37'1121.4
2019-Jul-07 05:30N 51°28' W 130°49'1020.4
2019-Jul-07 05:00N 51°35' W 131°01'1020.1
2019-Jul-07 04:30N 51°42' W 131°13'1020.2
2019-Jul-07 04:00N 51°49' W 131°25'1520.1
2019-Jul-07 03:15N 52°00' W 131°41'5140.7
2019-Jul-07 02:00N 52°48' W 132°12'1712.5 310 / 161017.3 5.4 13.513.514.0
2019-Jul-07 00:39N 52°41' W 132°37'420.7
2019-Jul-07 00:27N 52°45' W 132°41'511.8
2019-Jul-07 00:00N 52°48' W 132°48'4523.2 310 / 151018.3 5.4 14.013.114.0
2019-Jul-06 22:03N 53°28' W 133°24'3120.6
2019-Jul-06 20:33N 53°57' W 133°39'121.2
2019-Jul-06 20:30N 53°58' W 133°39'1020.7
2019-Jul-06 20:00N 54°08' W 133°44'342563.5
2019-Jul-06 20:00N 54°06' W 134°42'5226.2 300 / 101019.5 5.4 13.413.013.0
2019-Jul-06 18:00N 54°54' W 134°06'11419.1 300 / 141019.5 0.1 13.513.113.0
2019-Jul-06 12:00N 56°48' W 134°24'   190 / 191017.610.8 13.512.614.0

Dump ship's entire track history